KSIY

Siskiyou County Airport

Montague, California, USA
METAR KSIY 242053Z AUTO 25005KT 10SM CLR 23/M07 A3005 RMK AO2 SLP170 T02331067 58022
Observed Flight Rules
Sep-24 @ 20:53 UTC (48 minutes ago) Visual Flight Rules
Wind Visibility Clouds
250° at 5 knots 10 miles
  • Clear skies
Temperatures Readings
Current 23°C / 73°F
Dewpoint -7°C / 19°F
Humidity 13%
Altimeter 30.05" Hg
Pressure 1017 hPa
Elevation 807
METAR KSIY 242053Z AUTO 25005KT 10SM CLR 23/M07 A3005 RMK AO2 SLP170 T02331067 58022
Observed Flight Rules
Sep-24 @ 20:53 UTC
(48 minutes ago)
VFR
Wind Visibility
250° at 5 knots 10 miles
Clouds
  • Clear skies
Temperature Dewpoint
23°C / 73°F -7°C / 19°F
Humidity Altimeter Pressure
13% 30.05" Hg 1017 hPa